Latest Coastal Weather Observations for Kalumburu

IDW60701

Issued at 7:52 am WST Friday 12 February 2016 (issued every 10 minutes, with the page automatically refreshed every 10 minutes)

About coastal observations | Map of coastal stations | Coastal observations for WA | Marine services | Other Formats
Station Details ID: 001019 Name: KALUMBURU Lat: -14.30 Lon: 126.65 Height: 23.0 m
Data from the previous 72 hours. | See also: Recent months at Kalumburu
Date/Time
WST
Temp

°C
Wind Pressure Rain
since 9am
mm
Weather Cloud Vis
km
Sea
Height
m
Swell
Dir
 
Speed
knots
Gust
knots
hPa Trend Height
m
Period
s
Dir
12/07:30am 30.3 SSW 1 4 1009.0 - 4.4 - - - - - - -
12/07:00am 28.7 NW 1 3 1008.9 - 4.4 - - - - - - -
12/06:30am 26.9 CALM 0 0 1008.6 - 4.4 - - - - - - -
12/06:00am 25.9 CALM 0 4 1008.5 - 4.4 - - - - - - -
12/05:30am 25.6 CALM 0 0 1008.6 - 4.4 - - - - - - -
12/05:00am 25.9 CALM 0 0 1008.7 - 4.4 - - - - - - -
12/04:30am 26.6 ENE 3 4 1008.8 - 4.4 - - - - - - -
12/04:00am 26.9 SSE 6 8 1008.6 - 4.4 - - - - - - -
12/03:30am 25.7 SSE 4 5 1008.0 - 4.4 - - - - - - -
12/03:00am 26.2 S 3 6 1007.7 - 4.4 - - - - - - -
12/02:30am 25.9 S 3 5 1007.4 - 4.4 - - - - - - -
12/02:00am 25.2 SW 1 4 1007.4 - 4.4 - - - - - - -
12/01:30am 24.7 CALM 0 0 1007.1 - 4.4 - - - - - - -
12/01:00am 24.2 CALM 0 0 1007.3 - 4.4 - - - - - - -
12/12:30am 24.3 CALM 0 0 1007.4 - 4.4 - - - - - - -
12/12:00am 24.5 CALM 0 0 1007.6 - 4.4 - - - - - - -
 
Date/Time
WST
Temp

°C
Wind Pressure Rain
since 9am
mm
Weather Cloud Vis
km
Sea
Height
m
Swell
Dir
 
Speed
knots
Gust
knots
hPa Trend Height
m
Period
s
Dir
11/11:30pm 24.9 CALM 0 0 1007.9 - 4.4 - - - - - - -
11/11:00pm 24.7 CALM 0 0 1008.0 - 4.4 - - - - - - -
11/10:30pm 25.2 SSW 1 3 1008.3 - 4.4 - - - - - - -
11/10:00pm 25.2 SE 1 4 1008.4 - 4.4 - - - - - - -
11/09:30pm 25.5 CALM 0 3 1008.3 - 4.4 - - - - - - -
11/09:00pm 26.8 WSW 2 6 1008.1 - 4.4 - - - - - - -
11/08:30pm 26.7 CALM 0 0 1007.9 - 4.4 - - - - - - -
11/08:00pm 27.5 WNW 7 10 1007.3 - 4.4 - - - - - - -
11/07:30pm 26.7 NW 3 5 1008.4 - 4.4 - - - - - - -
11/07:00pm 26.9 ESE 6 13 1008.2 - 4.4 - - - - - - -
11/06:30pm 26.1 SSE 3 7 1007.2 - 4.4 - - - - - - -
11/06:00pm 25.8 CALM 0 3 1006.3 - 4.4 - - - - - - -
11/05:30pm 26.8 WNW 5 8 1005.6 - 4.4 - - - - - - -
11/05:00pm 26.9 NW 5 7 1005.5 - 4.4 - - - - - - -
11/04:30pm 26.5 N 8 11 1005.3 - 4.4 - - - - - - -
11/04:00pm 26.3 N 7 11 1005.2 - 4.4 - - - - - - -
11/03:30pm 26.7 N 6 10 1005.2 - 4.4 - - - - - - -
11/03:00pm 26.3 NW 7 15 1004.7 - 4.2 Recent precip. - - - - - -
11/02:30pm 24.7 ESE 8 19 1004.1 - 4.2 - - - - - - -
11/02:15pm 26.8 E 15 35 1004.5 - 0.6 - - - - - - -
11/02:12pm 29.6 ENE 14 23 1004.7 - 0.0 - - - - - - -
11/02:00pm 34.6 NNE 8 14 1004.4 - 0.0 - - - - - - -
11/01:30pm 36.2 NNW 9 13 1003.8 - 0.0 - - - - - - -
11/01:00pm 37.4 S 4 6 1004.3 - 0.0 - - - - - - -
11/12:30pm 36.8 SE 4 5 1004.7 - 0.0 - - - - - - -
11/12:00pm 36.4 S 4 6 1005.0 - 0.0 - - - - - - -
11/11:30am 35.6 S 4 6 1005.6 - 0.0 - - - - - - -
11/11:00am 35.2 S 3 6 1006.0 - 0.0 - - - - - - -
11/10:30am 34.6 S 4 7 1006.4 - 0.0 - - - - - - -
11/10:00am 33.9 SW 4 7 1006.6 - 0.0 - - - - - - -
11/09:30am 33.0 S 5 8 1006.9 - 0.0 - - - - - - -
11/09:00am 32.6 S 6 9 1007.3 - 18.6 - - - - - - -
11/08:30am 31.8 SSW 5 11 1007.4 - 18.6 - - - - - - -
11/08:00am 31.1 SSW 4 6 1007.6 - 18.6 - - - - - - -
11/07:30am 30.0 SSW 3 7 1007.6 - 18.6 - - - - - - -
11/07:00am 29.5 SSE 2 4 1007.7 - 18.6 - - - - - - -
11/06:30am 28.1 S 3 4 1007.3 - 18.6 - - - - - - -
11/06:00am 26.0 CALM 0 0 1007.0 - 18.6 - - - - - - -
11/05:30am 25.3 CALM 0 1 1006.6 - 18.6 - - - - - - -
11/05:00am 25.4 ESE 3 4 1006.4 - 18.6 - - - - - - -
11/04:30am 25.5 NE 3 4 1006.0 - 18.6 - - - - - - -
11/04:00am 25.6 NNW 4 5 1005.9 - 18.6 - - - - - - -
11/03:30am 25.7 WNW 3 4 1006.4 - 18.6 - - - - - - -
11/03:00am 26.2 SW 1 4 1006.7 - 18.6 - - - - - - -
11/02:30am 26.5 S 5 9 1007.2 - 18.6 - - - - - - -
11/02:00am 25.1 SSE 3 5 1006.2 - 18.6 - - - - - - -
11/01:30am 26.1 S 4 6 1006.3 - 18.6 - - - - - - -
11/01:00am 26.4 S 4 6 1006.5 - 18.6 - - - - - - -
11/12:30am 26.4 SSW 3 6 1006.4 - 18.6 - - - - - - -
11/12:00am 26.4 S 4 5 1006.6 - 18.6 - - - - - - -
 
Date/Time
WST
Temp

°C
Wind Pressure Rain
since 9am
mm
Weather Cloud Vis
km
Sea
Height
m
Swell
Dir
 
Speed
knots
Gust
knots
hPa Trend Height
m
Period
s
Dir
10/11:30pm 26.7 S 3 5 1006.9 - 18.6 - - - - - - -
10/11:00pm 26.7 S 5 7 1007.3 - 18.6 - - - - - - -
10/10:30pm 26.8 SSE 5 8 1007.4 - 18.6 - - - - - - -
10/10:00pm 26.4 S 4 7 1007.7 - 18.6 - - - - - - -
10/09:30pm 25.6 SSE 3 5 1007.7 - 18.6 - - - - - - -
10/09:00pm 25.4 CALM 0 0 1007.4 - 18.6 - - - - - - -
10/08:30pm 25.5 CALM 0 4 1007.6 - 18.6 - - - - - - -
10/08:00pm 25.4 S 1 5 1007.3 - 18.6 - - - - - - -
10/07:30pm 25.1 CALM 0 0 1006.9 - 18.6 - - - - - - -
10/07:00pm 24.8 SSE 1 4 1006.6 - 18.6 - - - - - - -
10/06:30pm 24.9 WSW 4 6 1006.4 - 18.6 - - - - - - -
10/06:00pm 24.8 SW 2 5 1005.8 - 18.6 Recent precip. - - - - - -
10/05:30pm 24.9 SE 5 9 1005.1 - 18.6 - - - - - - -
10/05:00pm 25.9 NNE 13 35 1004.0 - 18.0 - - - - - - -
10/04:53pm 25.5 WSW 20 35 1005.5 - 16.0 - - - - - - -
10/04:51pm 24.7 SW 21 36 1006.5 - 13.4 - - - - - - -
10/04:49pm 23.5 SSW 19 36 1006.5 - 10.0 - - - - - - -
10/04:42pm 24.3 SE 10 36 1005.4 - 4.0 - - - - - - -
10/04:30pm 26.0 SE 16 36 1004.6 - 1.2 - - - - - - -
10/04:21pm 28.7 E 11 36 1004.2 - 0.2 - - - - - - -
10/04:06pm 29.1 NE 12 19 1004.7 - 0.0 - - - - - - -
10/04:00pm 34.1 NNW 10 17 1004.5 - 0.0 - - - - - - -
10/03:30pm 35.0 NW 10 17 1003.0 - 0.0 - - - - - - -
10/03:00pm 36.4 WNW 9 14 1003.3 - 0.0 - - - - - - -
10/02:30pm 37.6 WNW 8 14 1003.6 - 0.0 - - - - - - -
10/02:00pm 38.1 SW 4 9 1004.1 - 0.0 - - - - - - -
10/01:30pm 37.6 S 5 9 1004.5 - 0.0 - - - - - - -
10/01:00pm 37.5 SSW 5 8 1005.0 - 0.0 - - - - - - -
10/12:30pm 36.9 SSW 5 9 1005.4 - 0.0 - - - - - - -
10/12:00pm 36.9 S 4 8 1005.7 - 0.0 - - - - - - -
10/11:30am 36.4 WSW 5 11 1006.2 - 0.0 - - - - - - -
10/11:00am 35.7 SW 6 9 1006.6 - 0.0 - - - - - - -
10/10:30am 35.3 W 5 8 1006.9 - 0.0 - - - - - - -
10/10:00am 34.1 S 2 5 1007.3 - 0.0 - - - - - - -
10/09:30am 32.9 S 5 7 1007.7 - 0.0 - - - - - - -
10/09:00am 32.7 SSW 5 7 1007.9 - 0.0 - - - - - - -
10/08:30am 31.6 S 4 7 1007.9 - 0.0 - - - - - - -
10/08:00am 30.3 S 5 8 1008.0 - 0.0 - - - - - - -
10/07:30am 28.4 S 5 7 1007.9 - 0.0 - - - - - - -
10/07:00am 27.6 S 5 6 1007.9 - 0.0 - - - - - - -
10/06:30am 27.0 S 5 7 1007.8 - 0.0 - - - - - - -
10/06:00am 26.1 S 3 5 1007.4 - 0.0 - - - - - - -
10/05:30am 26.0 CALM 0 2 1007.3 - 0.0 - - - - - - -
10/05:00am 26.1 CALM 0 5 1007.1 - 0.0 - - - - - - -
10/04:30am 26.1 CALM 0 0 1006.9 - 0.0 - - - - - - -
10/04:00am 26.2 S 2 4 1006.7 - 0.0 - - - - - - -
10/03:30am 26.2 S 4 6 1006.6 - 0.0 - - - - - - -
10/03:00am 26.3 S 5 7 1006.6 - 0.0 - - - - - - -
10/02:30am 26.5 SSE 5 8 1006.5 - 0.0 - - - - - - -
10/02:00am 26.4 S 4 7 1006.8 - 0.0 - - - - - - -
10/01:30am 26.1 CALM 0 0 1006.5 - 0.0 - - - - - - -
10/01:00am 26.7 S 3 4 1006.6 - 0.0 - - - - - - -
10/12:30am 26.8 W 2 4 1007.2 - 0.0 - - - - - - -
10/12:00am 26.7 SSE 4 6 1007.9 - 0.0 - - - - - - -
 
Date/Time
WST
Temp

°C
Wind Pressure Rain
since 9am
mm
Weather Cloud Vis
km
Sea
Height
m
Swell
Dir
 
Speed
knots
Gust
knots
hPa Trend Height
m
Period
s
Dir
09/11:30pm 26.7 SSE 4 7 1008.7 - 0.0 - - - - - - -
09/11:00pm 27.3 SSW 2 6 1009.1 - 0.0 - - - - - - -
09/10:30pm 27.6 SSW 6 13 1009.7 - 0.0 - - - - - - -
09/10:00pm 27.8 S 4 6 1009.7 - 0.0 - - - - - - -
09/09:30pm 27.0 S 1 4 1009.4 - 0.0 - - - - - - -
09/09:00pm 26.8 SE 3 5 1008.6 - 0.0 - - - - - - -
09/08:30pm 26.9 ESE 3 4 1008.2 - 0.0 - - - - - - -
09/08:00pm 27.1 SE 3 5 1008.0 - 0.0 - - - - - - -
09/07:30pm 28.0 WSW 3 6 1007.9 - 0.0 - - - - - - -
09/07:00pm 29.2 SW 6 11 1007.4 - 0.0 - - - - - - -
09/06:30pm 31.9 NNW 3 6 1007.3 - 0.0 - - - - - - -
09/06:00pm 32.6 N 7 11 1006.4 - 0.0 - - - - - - -
09/05:30pm 33.4 N 8 11 1006.2 - 0.0 - - - - - - -
09/05:00pm 33.8 N 8 13 1005.6 - 0.0 - - - - - - -
09/04:30pm 34.4 N 8 12 1005.2 - 0.0 - - - - - - -
09/04:00pm 35.7 NW 7 11 1005.1 - 0.0 - - - - - - -
09/03:30pm 35.2 NNW 8 11 1005.3 - 0.0 - - - - - - -
09/03:00pm 35.0 N 8 11 1005.5 - 0.0 - - - - - - -
09/02:30pm 35.0 NNW 9 13 1005.8 - 0.0 - - - - - - -
09/02:00pm 34.8 N 9 14 1006.1 - 0.0 - - - - - - -
09/01:30pm 34.6 NNW 8 13 1006.4 - 0.0 - - - - - - -
09/01:00pm 35.9 SSW 5 10 1006.6 - 0.0 - - - - - - -
09/12:30pm 36.6 SSE 4 6 1006.8 - 0.0 - - - - - - -
09/12:00pm 36.1 SSE 4 7 1007.3 - 0.0 - - - - - - -
09/11:30am 35.8 S 3 6 1007.8 - 0.0 - - - - - - -
09/11:00am 35.6 SE 4 6 1008.3 - 0.0 - - - - - - -
09/10:30am 35.0 SE 3 5 1008.7 - 0.0 - - - - - - -
09/10:00am 34.4 S 4 6 1009.0 - 0.0 - - - - - - -
09/09:30am 33.7 SSE 3 5 1009.4 - 0.0 - - - - - - -
09/09:00am 32.9 W 3 4 1009.5 - 0.0 - - - - - - -
09/08:30am 32.1 SSE 3 5 1009.6 - 0.0 - - - - - - -
09/08:00am 31.0 SSE 3 5 1009.7 - 0.0 - - - - - - -

Other Formats:

Comma delimited format used in spreadsheet applications
http://www.bom.gov.au/fwo/IDW60701/IDW60701.94100.axf

JavaScript Object Notation format (JSON) in row-major order
http://www.bom.gov.au/fwo/IDW60701/IDW60701.94100.json